createdAt,value
2023-02-22T00:00:16.130Z,99.000000
2023-02-22T00:05:18.103Z,99.000000
2023-02-22T00:10:20.017Z,99.000000
2023-02-22T00:15:21.746Z,99.000000
2023-02-22T00:20:23.666Z,99.000000
2023-02-22T00:25:25.650Z,99.000000
2023-02-22T00:30:27.387Z,99.000000
2023-02-22T00:35:29.299Z,99.000000
2023-02-22T00:40:31.060Z,99.000000
2023-02-22T00:45:33.037Z,99.000000
2023-02-22T00:50:34.683Z,99.000000
2023-02-22T00:55:16.261Z,99.000000
2023-02-22T01:00:18.198Z,99.000000
2023-02-22T01:05:20.039Z,99.000000
2023-02-22T01:10:21.943Z,99.000000
2023-02-22T01:15:23.755Z,99.000000
2023-02-22T01:20:25.721Z,99.000000
2023-02-22T01:25:27.721Z,99.000000
2023-02-22T01:30:29.609Z,99.000000
2023-02-22T01:35:31.304Z,99.000000
2023-02-22T01:40:33.223Z,99.000000
2023-02-22T01:45:35.250Z,99.000000
2023-02-22T01:50:16.728Z,99.000000
2023-02-22T01:55:18.603Z,99.000000
2023-02-22T02:00:20.692Z,99.000000
2023-02-22T02:05:22.896Z,99.000000
2023-02-22T02:10:25.007Z,99.000000
2023-02-22T02:15:27.037Z,99.000000
2023-02-22T02:20:29.009Z,99.000000
2023-02-22T02:25:31.139Z,99.000000
2023-02-22T02:30:33.163Z,99.000000
2023-02-22T02:35:35.450Z,99.000000
2023-02-22T02:40:17.215Z,99.000000
2023-02-22T02:45:19.365Z,99.000000
2023-02-22T02:50:21.490Z,99.000000
2023-02-22T02:55:23.370Z,99.000000
2023-02-22T03:00:25.587Z,99.000000
2023-02-22T03:05:27.908Z,99.000000
2023-02-22T03:10:30.066Z,99.000000
2023-02-22T03:15:32.258Z,99.000000
2023-02-22T03:20:34.455Z,99.000000
2023-02-22T03:25:16.626Z,99.000000
2023-02-22T03:30:19.265Z,99.000000
2023-02-22T03:35:21.680Z,99.000000
2023-02-22T03:40:23.967Z,99.000000
2023-02-22T03:45:26.496Z,99.000000
2023-02-22T03:50:28.968Z,99.000000
2023-02-22T03:55:31.054Z,99.000000
2023-02-22T04:00:33.232Z,99.000000
2023-02-22T04:05:35.470Z,99.000000
2023-02-22T04:10:17.323Z,99.000000
2023-02-22T04:15:19.783Z,99.000000
2023-02-22T04:20:21.976Z,99.000000
2023-02-22T04:25:24.586Z,99.000000
2023-02-22T04:30:27.079Z,99.000000
2023-02-22T04:35:29.374Z,99.000000
2023-02-22T04:40:31.828Z,99.000000
2023-02-22T04:45:33.908Z,99.000000
2023-02-22T04:50:16.030Z,99.000000
2023-02-22T04:55:18.351Z,99.000000
2023-02-22T05:00:21.116Z,99.000000
2023-02-22T05:05:23.250Z,99.000000
2023-02-22T05:10:25.081Z,99.000000
2023-02-22T05:15:27.323Z,99.000000
2023-02-22T05:20:29.290Z,99.000000
2023-02-22T05:25:31.493Z,99.000000
2023-02-22T05:30:33.609Z,99.000000
2023-02-22T05:35:35.176Z,99.000000
2023-02-22T05:40:16.877Z,99.000000
2023-02-22T05:45:19.009Z,99.000000
2023-02-22T05:50:21.232Z,99.000000
2023-02-22T05:55:23.440Z,99.000000
2023-02-22T06:00:25.307Z,99.000000
2023-02-22T06:05:27.325Z,99.000000
2023-02-22T06:10:29.272Z,99.000000
2023-02-22T06:15:31.349Z,99.000000
2023-02-22T06:20:33.203Z,99.000000
2023-02-22T06:25:35.299Z,99.000000
2023-02-22T06:30:16.970Z,99.000000
2023-02-22T06:35:18.694Z,99.000000
2023-02-22T06:40:20.685Z,99.000000
2023-02-22T06:45:22.843Z,99.000000
2023-02-22T06:50:24.611Z,99.000000
2023-02-22T06:55:26.498Z,99.000000
2023-02-22T07:00:28.321Z,99.000000
2023-02-22T07:05:30.344Z,99.000000
2023-02-22T07:10:32.043Z,99.000000
2023-02-22T07:15:33.862Z,99.000000
2023-02-22T07:20:35.808Z,99.000000
2023-02-22T07:25:17.442Z,99.000000
2023-02-22T07:30:19.657Z,99.000000
2023-02-22T07:35:21.401Z,99.000000
2023-02-22T07:40:23.189Z,99.000000
2023-02-22T07:45:25.053Z,99.000000
2023-02-22T07:50:26.877Z,99.000000
2023-02-22T07:55:28.636Z,99.000000
2023-02-22T08:00:30.431Z,99.000000
2023-02-22T08:05:32.281Z,99.000000
2023-02-22T08:10:34.375Z,99.000000
2023-02-22T08:15:16.040Z,99.000000
2023-02-22T08:20:18.064Z,99.000000
2023-02-22T08:25:19.922Z,99.000000
2023-02-22T08:30:21.750Z,99.000000
2023-02-22T08:35:23.474Z,99.000000
2023-02-22T08:40:25.461Z,99.000000
2023-02-22T08:45:27.336Z,99.000000
2023-02-22T08:50:29.266Z,99.000000
2023-02-22T08:55:30.865Z,99.000000
2023-02-22T09:00:32.961Z,99.000000
2023-02-22T09:05:34.758Z,99.000000
2023-02-22T09:10:16.433Z,99.000000
2023-02-22T09:15:18.407Z,99.000000
2023-02-22T09:20:20.092Z,99.000000
2023-02-22T09:25:22.046Z,99.000000
2023-02-22T09:30:24.110Z,99.000000
2023-02-22T09:35:25.611Z,99.000000
2023-02-22T09:40:27.530Z,99.000000
2023-02-22T09:45:29.549Z,99.000000
2023-02-22T09:50:31.557Z,99.000000
2023-02-22T09:55:33.201Z,99.000000
2023-02-22T10:00:35.061Z,99.000000
2023-02-22T10:05:16.837Z,99.000000
2023-02-22T10:10:18.732Z,99.000000
2023-02-22T10:15:20.469Z,99.000000
2023-02-22T10:20:22.525Z,99.000000
2023-02-22T10:25:24.600Z,99.000000
2023-02-22T10:30:26.400Z,99.000000
2023-02-22T10:35:28.201Z,99.000000
2023-02-22T10:40:30.176Z,99.000000
2023-02-22T10:45:32.046Z,99.000000
2023-02-22T10:50:33.855Z,99.000000
2023-02-22T10:55:35.764Z,98.466667
2023-02-22T11:00:17.254Z,98.000000
2023-02-22T11:05:19.157Z,98.000000
2023-02-22T11:10:21.012Z,98.000000
2023-02-22T11:15:23.209Z,98.000000
2023-02-22T11:20:25.113Z,97.866667
2023-02-22T11:25:27.056Z,97.000000
2023-02-22T11:30:29.028Z,97.000000
2023-02-22T11:35:30.908Z,97.000000
2023-02-22T11:40:34.714Z,97.000000
2023-02-22T11:45:34.769Z,97.000000
2023-02-22T11:50:16.555Z,97.000000
2023-02-22T11:55:21.125Z,97.000000
2023-02-22T12:00:20.255Z,97.000000
2023-02-22T12:05:22.190Z,97.000000
2023-02-22T12:10:23.759Z,97.000000
2023-02-22T12:15:25.738Z,97.000000
2023-02-22T12:20:27.617Z,97.000000
2023-02-22T12:25:29.583Z,97.066667
2023-02-22T12:30:31.410Z,98.000000
2023-02-22T12:35:33.256Z,98.000000
2023-02-22T12:40:35.139Z,98.000000
2023-02-22T12:45:16.935Z,98.000000
2023-02-22T12:50:18.826Z,98.000000
2023-02-22T12:55:20.598Z,98.000000
2023-02-22T13:00:22.497Z,98.000000
2023-02-22T13:05:24.613Z,98.000000
2023-02-22T13:10:26.518Z,98.000000
2023-02-22T13:15:28.408Z,98.000000
2023-02-22T13:20:30.272Z,98.000000
2023-02-22T13:25:32.536Z,98.000000
2023-02-22T13:30:34.132Z,98.000000
2023-02-22T13:35:15.920Z,98.000000
2023-02-22T13:40:18.059Z,98.000000
2023-02-22T13:45:20.618Z,98.000000
2023-02-22T13:50:22.720Z,98.000000
2023-02-22T13:55:24.909Z,98.000000
2023-02-22T14:00:27.197Z,98.000000
2023-02-22T14:05:30.491Z,98.000000
2023-02-22T14:10:43.213Z,98.000000
2023-02-22T14:15:30.073Z,98.000000
2023-02-22T14:20:36.257Z,98.000000
2023-02-22T14:25:28.079Z,98.000000
2023-02-22T14:30:19.947Z,98.000000
2023-02-22T14:35:27.510Z,98.000000
2023-02-22T14:40:23.781Z,98.000000
2023-02-22T14:45:26.895Z,98.000000
2023-02-22T14:50:27.771Z,98.000000
2023-02-22T14:55:29.710Z,98.000000
2023-02-22T15:00:31.634Z,98.000000
2023-02-22T15:05:33.561Z,98.000000
2023-02-22T15:10:35.436Z,98.000000
2023-02-22T15:15:17.051Z,98.000000
2023-02-22T15:20:19.210Z,98.000000
2023-02-22T15:25:21.301Z,98.000000
2023-02-22T15:30:23.089Z,98.000000
2023-02-22T15:35:25.030Z,98.000000
2023-02-22T15:40:27.032Z,98.000000
2023-02-22T15:45:28.973Z,98.000000
2023-02-22T15:50:30.926Z,98.000000
2023-02-22T15:55:32.824Z,98.000000
2023-02-22T16:00:35.067Z,98.000000
2023-02-22T16:05:17.004Z,98.000000
2023-02-22T16:10:19.269Z,98.000000
2023-02-22T16:15:21.490Z,97.333333
2023-02-22T16:20:23.941Z,97.000000
2023-02-22T16:25:25.849Z,97.000000
2023-02-22T16:30:28.302Z,97.000000
2023-02-22T16:35:30.317Z,97.000000
2023-02-22T16:40:32.924Z,97.000000
2023-02-22T16:45:34.687Z,97.000000
2023-02-22T16:50:16.848Z,97.000000
2023-02-22T16:55:19.478Z,97.000000
2023-02-22T17:00:21.525Z,96.533333
2023-02-22T17:05:23.519Z,96.000000
2023-02-22T17:10:25.625Z,96.000000
2023-02-22T17:15:27.550Z,96.000000
2023-02-22T17:20:29.493Z,96.000000
2023-02-22T17:25:31.622Z,96.000000
2023-02-22T17:30:33.552Z,95.800000
2023-02-22T17:35:36.972Z,95.066667
2023-02-22T17:40:17.118Z,95.000000
2023-02-22T17:45:19.011Z,95.000000
2023-02-22T17:50:21.020Z,94.466667
2023-02-22T17:55:22.979Z,94.000000
2023-02-22T18:00:25.006Z,94.000000
2023-02-22T18:05:27.044Z,93.533333
2023-02-22T18:10:29.045Z,93.000000
2023-02-22T18:15:31.113Z,93.000000
2023-02-22T18:20:33.442Z,93.000000
2023-02-22T18:25:35.401Z,93.000000
2023-02-22T18:30:17.597Z,93.000000
2023-02-22T18:35:20.078Z,92.200000
2023-02-22T18:40:22.041Z,91.733333
2023-02-22T18:45:26.270Z,91.000000
2023-02-22T18:50:26.536Z,90.733333
2023-02-22T18:55:28.627Z,90.000000
2023-02-22T19:00:30.631Z,90.000000
2023-02-22T19:05:33.019Z,89.133333
2023-02-22T19:10:35.074Z,88.600000
2023-02-22T19:15:17.209Z,88.000000
2023-02-22T19:20:19.331Z,87.866667
2023-02-22T19:25:21.419Z,87.133333
2023-02-22T19:30:23.185Z,87.000000
2023-02-22T19:35:25.366Z,87.466667
2023-02-22T19:40:27.052Z,87.800000
2023-02-22T19:45:28.908Z,88.000000
2023-02-22T19:50:30.987Z,87.933333
2023-02-22T19:55:33.049Z,87.133333
2023-02-22T20:00:34.608Z,87.000000
2023-02-22T20:05:16.348Z,87.400000
2023-02-22T20:10:18.216Z,88.000000
2023-02-22T20:15:20.323Z,88.200000
2023-02-22T20:20:22.126Z,88.866667
2023-02-22T20:25:23.945Z,89.214286
2023-02-22T20:30:25.951Z,89.333333
2023-02-22T20:35:27.954Z,89.733333
2023-02-22T20:40:29.711Z,90.000000
2023-02-22T20:45:31.644Z,90.000000
2023-02-22T20:50:33.679Z,90.000000
2023-02-22T20:55:35.665Z,90.000000
2023-02-22T21:00:17.786Z,90.133333
2023-02-22T21:05:19.793Z,90.600000
2023-02-22T21:10:21.798Z,91.000000
2023-02-22T21:15:23.754Z,91.000000
2023-02-22T21:20:25.719Z,91.066667
2023-02-22T21:25:27.759Z,91.000000
2023-02-22T21:30:29.649Z,90.866667
2023-02-22T21:35:31.953Z,90.000000
2023-02-22T21:40:33.558Z,89.333333
2023-02-22T21:45:35.528Z,88.133333
2023-02-22T21:50:18.317Z,87.933333
2023-02-22T21:55:19.437Z,87.066667
2023-02-22T22:00:21.397Z,87.133333
2023-02-22T22:05:23.288Z,87.000000
2023-02-22T22:10:25.199Z,86.466667
2023-02-22T22:15:26.976Z,86.133333
2023-02-22T22:20:28.825Z,86.600000
2023-02-22T22:25:30.816Z,87.000000
2023-02-22T22:30:32.606Z,87.800000
2023-02-22T22:35:34.418Z,87.733333
2023-02-22T22:40:16.142Z,88.000000
2023-02-22T22:45:18.251Z,88.000000
2023-02-22T22:50:20.262Z,88.733333
2023-02-22T22:55:22.163Z,90.000000
2023-02-22T23:00:24.082Z,90.800000
2023-02-22T23:05:25.940Z,91.400000
2023-02-22T23:10:27.870Z,92.000000
2023-02-22T23:15:30.120Z,92.466667
2023-02-22T23:20:31.940Z,93.000000
2023-02-22T23:25:34.250Z,93.000000
2023-02-22T23:30:15.870Z,93.000000
2023-02-22T23:35:18.055Z,93.000000
2023-02-22T23:40:20.006Z,93.000000
2023-02-22T23:45:21.858Z,93.000000
2023-02-22T23:50:23.870Z,93.000000
2023-02-22T23:55:25.858Z,93.000000
